sensor_id;sensor_type;location;lat;lon;timestamp;pressure;altitude;pressure_sealevel;temperature;humidity
19447;BME280;9862;49.462;11.054;2023-02-15T00:01:56;99558.16;;;5.06;100.00
19447;BME280;9862;49.462;11.054;2023-02-15T00:04:24;99559.16;;;5.15;100.00
19447;BME280;9862;49.462;11.054;2023-02-15T00:07:14;99556.25;;;5.28;100.00
19447;BME280;9862;49.462;11.054;2023-02-15T00:09:41;99549.72;;;5.22;100.00
19447;BME280;9862;49.462;11.054;2023-02-15T00:12:09;99564.44;;;5.25;100.00
19447;BME280;9862;49.462;11.054;2023-02-15T00:14:35;99558.91;;;5.28;100.00
19447;BME280;9862;49.462;11.054;2023-02-15T00:17:02;99552.50;;;5.30;100.00
19447;BME280;9862;49.462;11.054;2023-02-15T00:19:29;99553.22;;;5.42;100.00
19447;BME280;9862;49.462;11.054;2023-02-15T00:21:56;99553.09;;;5.53;100.00
19447;BME280;9862;49.462;11.054;2023-02-15T00:24:25;99544.88;;;5.56;100.00
19447;BME280;9862;49.462;11.054;2023-02-15T00:26:51;99541.81;;;5.70;100.00
19447;BME280;9862;49.462;11.054;2023-02-15T00:29:19;99546.81;;;5.54;100.00
19447;BME280;9862;49.462;11.054;2023-02-15T00:31:46;99549.75;;;5.51;100.00
19447;BME280;9862;49.462;11.054;2023-02-15T00:34:15;99541.94;;;5.59;100.00
19447;BME280;9862;49.462;11.054;2023-02-15T00:36:42;99543.66;;;5.51;100.00
19447;BME280;9862;49.462;11.054;2023-02-15T00:39:10;99549.31;;;5.46;100.00
19447;BME280;9862;49.462;11.054;2023-02-15T00:41:38;99542.38;;;5.45;100.00
19447;BME280;9862;49.462;11.054;2023-02-15T00:44:06;99550.00;;;5.48;100.00
19447;BME280;9862;49.462;11.054;2023-02-15T00:46:33;99544.03;;;5.36;100.00
19447;BME280;9862;49.462;11.054;2023-02-15T00:49:00;99540.69;;;5.25;100.00
19447;BME280;9862;49.462;11.054;2023-02-15T00:51:27;99541.94;;;5.21;100.00
19447;BME280;9862;49.462;11.054;2023-02-15T00:53:54;99546.81;;;5.25;100.00
19447;BME280;9862;49.462;11.054;2023-02-15T00:56:20;99543.88;;;5.18;100.00
19447;BME280;9862;49.462;11.054;2023-02-15T00:58:49;99538.06;;;5.25;100.00
19447;BME280;9862;49.462;11.054;2023-02-15T01:01:18;99540.00;;;5.23;100.00
19447;BME280;9862;49.462;11.054;2023-02-15T01:03:45;99538.75;;;5.27;100.00
19447;BME280;9862;49.462;11.054;2023-02-15T01:06:13;99540.84;;;5.13;100.00
19447;BME280;9862;49.462;11.054;2023-02-15T01:08:40;99535.38;;;4.96;100.00
19447;BME280;9862;49.462;11.054;2023-02-15T01:11:10;99533.03;;;5.02;100.00
19447;BME280;9862;49.462;11.054;2023-02-15T01:13:37;99535.78;;;5.01;100.00
19447;BME280;9862;49.462;11.054;2023-02-15T01:16:06;99527.19;;;5.08;100.00
19447;BME280;9862;49.462;11.054;2023-02-15T01:18:34;99529.97;;;4.97;100.00
19447;BME280;9862;49.462;11.054;2023-02-15T01:21:10;99526.34;;;4.98;100.00
19447;BME280;9862;49.462;11.054;2023-02-15T01:23:36;99519.25;;;4.89;100.00
19447;BME280;9862;49.462;11.054;2023-02-15T01:26:03;99524.69;;;4.97;100.00
19447;BME280;9862;49.462;11.054;2023-02-15T01:28:30;99520.69;;;5.03;100.00
19447;BME280;9862;49.462;11.054;2023-02-15T01:30:57;99526.66;;;5.05;100.00
19447;BME280;9862;49.462;11.054;2023-02-15T01:33:26;99520.25;;;5.07;100.00
19447;BME280;9862;49.462;11.054;2023-02-15T01:35:56;99520.13;;;5.09;100.00
19447;BME280;9862;49.462;11.054;2023-02-15T01:38:23;99522.50;;;5.02;100.00
19447;BME280;9862;49.462;11.054;2023-02-15T01:40:50;99509.53;;;4.99;100.00
19447;BME280;9862;49.462;11.054;2023-02-15T01:43:17;99509.00;;;5.05;100.00
19447;BME280;9862;49.462;11.054;2023-02-15T01:45:47;99499.31;;;5.15;100.00
19447;BME280;9862;49.462;11.054;2023-02-15T01:48:19;99499.16;;;5.17;100.00
19447;BME280;9862;49.462;11.054;2023-02-15T01:50:51;99488.06;;;5.13;100.00
19447;BME280;9862;49.462;11.054;2023-02-15T01:53:22;99501.09;;;5.05;100.00
19447;BME280;9862;49.462;11.054;2023-02-15T01:55:53;99482.50;;;5.16;100.00
19447;BME280;9862;49.462;11.054;2023-02-15T01:58:22;99482.06;;;5.11;100.00
19447;BME280;9862;49.462;11.054;2023-02-15T02:00:52;99471.41;;;5.13;100.00
19447;BME280;9862;49.462;11.054;2023-02-15T02:03:24;99470.97;;;5.17;100.00
19447;BME280;9862;49.462;11.054;2023-02-15T02:05:55;99471.66;;;5.10;100.00
19447;BME280;9862;49.462;11.054;2023-02-15T02:08:21;99461.81;;;5.12;100.00
19447;BME280;9862;49.462;11.054;2023-02-15T02:10:48;99463.03;;;5.17;100.00
19447;BME280;9862;49.462;11.054;2023-02-15T02:13:15;99476.38;;;5.26;100.00
19447;BME280;9862;49.462;11.054;2023-02-15T02:15:47;99470.56;;;5.22;100.00
19447;BME280;9862;49.462;11.054;2023-02-15T02:18:22;99471.41;;;5.23;100.00
19447;BME280;9862;49.462;11.054;2023-02-15T02:21:30;99466.13;;;5.23;100.00
19447;BME280;9862;49.462;11.054;2023-02-15T02:24:23;99483.03;;;5.39;100.00
19447;BME280;9862;49.462;11.054;2023-02-15T02:27:21;99474.72;;;5.05;100.00
19447;BME280;9862;49.462;11.054;2023-02-15T02:30:10;99481.97;;;4.63;100.00
19447;BME280;9862;49.462;11.054;2023-02-15T02:35:45;99473.00;;;4.75;100.00
19447;BME280;9862;49.462;11.054;2023-02-15T02:38:18;99465.97;;;4.95;100.00
19447;BME280;9862;49.462;11.054;2023-02-15T02:40:52;99462.06;;;4.89;100.00
19447;BME280;9862;49.462;11.054;2023-02-15T02:43:25;99462.75;;;4.92;100.00
19447;BME280;9862;49.462;11.054;2023-02-15T02:45:58;99464.44;;;4.93;100.00
19447;BME280;9862;49.462;11.054;2023-02-15T02:48:29;99447.06;;;4.90;100.00
19447;BME280;9862;49.462;11.054;2023-02-15T02:51:00;99455.25;;;4.97;100.00
19447;BME280;9862;49.462;11.054;2023-02-15T02:53:29;99453.00;;;4.73;100.00
19447;BME280;9862;49.462;11.054;2023-02-15T02:55:59;99457.69;;;4.59;100.00
19447;BME280;9862;49.462;11.054;2023-02-15T02:58:31;99454.69;;;4.64;100.00
19447;BME280;9862;49.462;11.054;2023-02-15T03:01:03;99456.50;;;4.73;100.00
19447;BME280;9862;49.462;11.054;2023-02-15T03:03:36;99455.91;;;4.60;100.00
19447;BME280;9862;49.462;11.054;2023-02-15T03:06:10;99458.25;;;4.63;100.00
19447;BME280;9862;49.462;11.054;2023-02-15T03:08:46;99445.06;;;4.63;100.00
19447;BME280;9862;49.462;11.054;2023-02-15T03:11:14;99448.56;;;4.64;100.00
19447;BME280;9862;49.462;11.054;2023-02-15T03:13:41;99447.59;;;4.65;100.00
19447;BME280;9862;49.462;11.054;2023-02-15T03:16:09;99445.31;;;4.50;100.00
19447;BME280;9862;49.462;11.054;2023-02-15T03:19:01;99451.56;;;4.49;100.00
19447;BME280;9862;49.462;11.054;2023-02-15T03:21:36;99449.31;;;4.35;100.00
19447;BME280;9862;49.462;11.054;2023-02-15T03:24:08;99446.56;;;4.46;100.00
19447;BME280;9862;49.462;11.054;2023-02-15T03:26:37;99445.72;;;4.36;100.00
19447;BME280;9862;49.462;11.054;2023-02-15T03:29:06;99450.84;;;4.38;100.00
19447;BME280;9862;49.462;11.054;2023-02-15T03:31:38;99449.22;;;4.46;100.00
19447;BME280;9862;49.462;11.054;2023-02-15T03:34:09;99447.44;;;4.56;100.00
19447;BME280;9862;49.462;11.054;2023-02-15T03:36:44;99447.72;;;4.63;100.00
19447;BME280;9862;49.462;11.054;2023-02-15T03:39:18;99456.34;;;4.75;100.00
19447;BME280;9862;49.462;11.054;2023-02-15T03:41:51;99452.47;;;4.79;100.00
19447;BME280;9862;49.462;11.054;2023-02-15T03:44:27;99445.00;;;4.84;100.00
19447;BME280;9862;49.462;11.054;2023-02-15T03:46:59;99455.53;;;4.84;100.00
19447;BME280;9862;49.462;11.054;2023-02-15T03:49:30;99450.53;;;4.91;100.00
19447;BME280;9862;49.462;11.054;2023-02-15T03:52:06;99437.63;;;5.16;100.00
19447;BME280;9862;49.462;11.054;2023-02-15T03:54:35;99449.03;;;5.07;100.00
19447;BME280;9862;49.462;11.054;2023-02-15T03:57:11;99446.38;;;5.07;100.00
19447;BME280;9862;49.462;11.054;2023-02-15T03:59:56;99449.69;;;5.00;100.00
19447;BME280;9862;49.462;11.054;2023-02-15T04:02:49;99454.72;;;4.93;100.00
19447;BME280;9862;49.462;11.054;2023-02-15T04:05:19;99460.25;;;5.00;100.00
19447;BME280;9862;49.462;11.054;2023-02-15T04:07:47;99464.44;;;5.02;100.00
19447;BME280;9862;49.462;11.054;2023-02-15T04:10:14;99466.13;;;5.03;100.00
19447;BME280;9862;49.462;11.054;2023-02-15T04:12:58;99458.88;;;4.86;100.00
19447;BME280;9862;49.462;11.054;2023-02-15T04:15:25;99455.25;;;4.77;100.00
19447;BME280;9862;49.462;11.054;2023-02-15T04:18:09;99453.03;;;4.92;100.00
19447;BME280;9862;49.462;11.054;2023-02-15T04:20:36;99461.53;;;5.05;100.00
19447;BME280;9862;49.462;11.054;2023-02-15T04:23:22;99463.47;;;5.03;100.00
19447;BME280;9862;49.462;11.054;2023-02-15T04:26:06;99459.41;;;4.99;100.00
19447;BME280;9862;49.462;11.054;2023-02-15T04:28:32;99462.06;;;4.99;100.00
19447;BME280;9862;49.462;11.054;2023-02-15T04:30:59;99472.22;;;4.94;100.00
19447;BME280;9862;49.462;11.054;2023-02-15T04:33:26;99472.47;;;4.91;100.00
19447;BME280;9862;49.462;11.054;2023-02-15T04:35:53;99468.84;;;4.92;100.00
19447;BME280;9862;49.462;11.054;2023-02-15T04:38:19;99472.75;;;4.88;100.00
19447;BME280;9862;49.462;11.054;2023-02-15T04:40:50;99470.53;;;4.93;100.00
19447;BME280;9862;49.462;11.054;2023-02-15T04:43:18;99475.00;;;5.02;100.00
19447;BME280;9862;49.462;11.054;2023-02-15T04:45:48;99476.91;;;5.00;100.00
19447;BME280;9862;49.462;11.054;2023-02-15T04:48:15;99468.84;;;5.02;100.00
19447;BME280;9862;49.462;11.054;2023-02-15T04:50:42;99467.78;;;5.04;100.00
19447;BME280;9862;49.462;11.054;2023-02-15T04:53:09;99451.94;;;5.04;100.00
19447;BME280;9862;49.462;11.054;2023-02-15T04:55:37;99455.28;;;5.06;100.00
19447;BME280;9862;49.462;11.054;2023-02-15T04:58:05;99450.13;;;5.05;100.00
19447;BME280;9862;49.462;11.054;2023-02-15T05:00:31;99458.59;;;5.08;100.00
19447;BME280;9862;49.462;11.054;2023-02-15T05:02:58;99459.16;;;5.02;100.00
19447;BME280;9862;49.462;11.054;2023-02-15T05:05:25;99448.88;;;4.99;100.00
19447;BME280;9862;49.462;11.054;2023-02-15T05:07:51;99448.19;;;4.97;100.00
19447;BME280;9862;49.462;11.054;2023-02-15T05:10:18;99442.47;;;4.92;100.00
19447;BME280;9862;49.462;11.054;2023-02-15T05:12:45;99436.66;;;4.98;100.00
19447;BME280;9862;49.462;11.054;2023-02-15T05:15:13;99430.25;;;5.01;100.00
19447;BME280;9862;49.462;11.054;2023-02-15T05:17:40;99429.19;;;5.03;100.00
19447;BME280;9862;49.462;11.054;2023-02-15T05:20:07;99424.16;;;5.00;100.00
19447;BME280;9862;49.462;11.054;2023-02-15T05:22:34;99424.72;;;4.94;100.00
19447;BME280;9862;49.462;11.054;2023-02-15T05:25:01;99425.13;;;4.99;100.00
19447;BME280;9862;49.462;11.054;2023-02-15T05:27:45;99428.88;;;4.97;100.00
19447;BME280;9862;49.462;11.054;2023-02-15T05:30:31;99421.50;;;5.00;100.00
19447;BME280;9862;49.462;11.054;2023-02-15T05:32:57;99424.97;;;4.81;100.00
19447;BME280;9862;49.462;11.054;2023-02-15T05:35:24;99430.13;;;4.73;100.00
19447;BME280;9862;49.462;11.054;2023-02-15T05:37:51;99439.13;;;4.71;100.00
19447;BME280;9862;49.462;11.054;2023-02-15T05:40:17;99439.56;;;4.76;100.00
19447;BME280;9862;49.462;11.054;2023-02-15T05:42:44;99428.56;;;4.71;100.00
19447;BME280;9862;49.462;11.054;2023-02-15T05:45:11;99432.88;;;4.72;100.00
19447;BME280;9862;49.462;11.054;2023-02-15T05:47:39;99435.13;;;4.76;100.00
19447;BME280;9862;49.462;11.054;2023-02-15T05:50:06;99430.53;;;4.78;100.00
19447;BME280;9862;49.462;11.054;2023-02-15T05:52:33;99430.69;;;4.77;100.00
19447;BME280;9862;49.462;11.054;2023-02-15T05:55:00;99423.16;;;4.82;100.00
19447;BME280;9862;49.462;11.054;2023-02-15T05:57:28;99427.34;;;4.75;100.00
19447;BME280;9862;49.462;11.054;2023-02-15T05:59:54;99420.66;;;4.71;100.00
19447;BME280;9862;49.462;11.054;2023-02-15T06:02:21;99415.25;;;4.63;100.00
19447;BME280;9862;49.462;11.054;2023-02-15T06:04:49;99420.78;;;4.59;100.00
19447;BME280;9862;49.462;11.054;2023-02-15T06:07:16;99417.75;;;4.54;100.00
19447;BME280;9862;49.462;11.054;2023-02-15T06:09:43;99426.72;;;4.52;100.00
19447;BME280;9862;49.462;11.054;2023-02-15T06:12:10;99418.81;;;4.52;100.00
19447;BME280;9862;49.462;11.054;2023-02-15T06:14:37;99411.34;;;4.47;100.00
19447;BME280;9862;49.462;11.054;2023-02-15T06:17:03;99412.72;;;4.51;100.00
19447;BME280;9862;49.462;11.054;2023-02-15T06:19:30;99405.63;;;4.42;100.00
19447;BME280;9862;49.462;11.054;2023-02-15T06:21:59;99416.00;;;4.34;100.00
19447;BME280;9862;49.462;11.054;2023-02-15T06:24:26;99417.66;;;4.16;100.00
19447;BME280;9862;49.462;11.054;2023-02-15T06:26:53;99417.56;;;3.96;100.00
19447;BME280;9862;49.462;11.054;2023-02-15T06:29:19;99421.69;;;3.89;100.00
19447;BME280;9862;49.462;11.054;2023-02-15T06:31:46;99427.00;;;3.99;100.00
19447;BME280;9862;49.462;11.054;2023-02-15T06:34:12;99435.00;;;3.88;100.00
19447;BME280;9862;49.462;11.054;2023-02-15T06:36:39;99440.81;;;3.91;100.00
19447;BME280;9862;49.462;11.054;2023-02-15T06:39:07;99440.53;;;3.94;100.00
19447;BME280;9862;49.462;11.054;2023-02-15T06:41:34;99437.81;;;3.96;100.00
19447;BME280;9862;49.462;11.054;2023-02-15T06:44:00;99439.56;;;3.95;100.00
19447;BME280;9862;49.462;11.054;2023-02-15T06:46:28;99442.81;;;3.99;100.00
19447;BME280;9862;49.462;11.054;2023-02-15T06:48:54;99442.56;;;4.12;100.00
19447;BME280;9862;49.462;11.054;2023-02-15T06:51:21;99444.00;;;4.16;100.00
19447;BME280;9862;49.462;11.054;2023-02-15T06:53:47;99447.34;;;4.27;100.00
19447;BME280;9862;49.462;11.054;2023-02-15T06:56:15;99442.91;;;4.28;100.00
19447;BME280;9862;49.462;11.054;2023-02-15T06:58:42;99447.06;;;4.30;100.00
19447;BME280;9862;49.462;11.054;2023-02-15T07:01:11;99451.53;;;4.40;100.00
19447;BME280;9862;49.462;11.054;2023-02-15T07:03:38;99437.97;;;4.44;100.00
19447;BME280;9862;49.462;11.054;2023-02-15T07:06:05;99442.81;;;4.39;100.00
19447;BME280;9862;49.462;11.054;2023-02-15T07:08:33;99440.34;;;4.47;100.00
19447;BME280;9862;49.462;11.054;2023-02-15T07:11:00;99438.91;;;4.43;100.00
19447;BME280;9862;49.462;11.054;2023-02-15T07:13:42;99435.34;;;4.44;100.00
19447;BME280;9862;49.462;11.054;2023-02-15T07:16:09;99429.50;;;4.41;100.00
19447;BME280;9862;49.462;11.054;2023-02-15T07:18:36;99436.56;;;4.40;100.00
19447;BME280;9862;49.462;11.054;2023-02-15T07:21:03;99440.19;;;4.49;100.00
19447;BME280;9862;49.462;11.054;2023-02-15T07:23:29;99436.56;;;4.40;100.00
19447;BME280;9862;49.462;11.054;2023-02-15T07:25:57;99447.03;;;4.21;100.00
19447;BME280;9862;49.462;11.054;2023-02-15T07:28:24;99435.22;;;4.46;100.00
19447;BME280;9862;49.462;11.054;2023-02-15T07:30:52;99440.72;;;4.43;100.00
19447;BME280;9862;49.462;11.054;2023-02-15T07:33:18;99440.72;;;4.02;100.00
19447;BME280;9862;49.462;11.054;2023-02-15T07:35:54;99436.94;;;3.95;100.00
19447;BME280;9862;49.462;11.054;2023-02-15T07:38:22;99432.88;;;4.12;100.00
19447;BME280;9862;49.462;11.054;2023-02-15T07:40:49;99436.59;;;4.10;100.00
19447;BME280;9862;49.462;11.054;2023-02-15T07:43:16;99436.16;;;4.05;100.00
19447;BME280;9862;49.462;11.054;2023-02-15T07:45:43;99429.59;;;3.89;100.00
19447;BME280;9862;49.462;11.054;2023-02-15T07:48:11;99435.78;;;3.79;100.00
19447;BME280;9862;49.462;11.054;2023-02-15T07:50:38;99430.97;;;3.93;100.00
19447;BME280;9862;49.462;11.054;2023-02-15T07:53:04;99436.66;;;3.89;100.00
19447;BME280;9862;49.462;11.054;2023-02-15T07:55:31;99423.50;;;5.74;100.00
19447;BME280;9862;49.462;11.054;2023-02-15T07:57:58;99420.88;;;6.48;100.00
19447;BME280;9862;49.462;11.054;2023-02-15T08:00:24;99413.47;;;7.23;100.00
19447;BME280;9862;49.462;11.054;2023-02-15T08:02:53;99406.25;;;7.77;100.00
19447;BME280;9862;49.462;11.054;2023-02-15T08:05:35;99396.22;;;8.23;100.00
19447;BME280;9862;49.462;11.054;2023-02-15T08:08:02;99402.13;;;8.17;100.00
19447;BME280;9862;49.462;11.054;2023-02-15T08:10:29;99412.16;;;7.71;100.00
19447;BME280;9862;49.462;11.054;2023-02-15T08:13:09;99412.22;;;6.92;100.00
19447;BME280;9862;49.462;11.054;2023-02-15T08:15:36;99422.47;;;6.31;100.00
19447;BME280;9862;49.462;11.054;2023-02-15T08:18:03;99415.72;;;5.92;100.00
19447;BME280;9862;49.462;11.054;2023-02-15T08:20:29;99423.19;;;5.87;100.00
19447;BME280;9862;49.462;11.054;2023-02-15T08:22:57;99416.88;;;5.60;100.00
19447;BME280;9862;49.462;11.054;2023-02-15T08:25:24;99425.94;;;5.29;100.00
19447;BME280;9862;49.462;11.054;2023-02-15T08:27:51;99420.44;;;5.03;100.00
19447;BME280;9862;49.462;11.054;2023-02-15T08:30:18;99420.97;;;4.87;100.00
19447;BME280;9862;49.462;11.054;2023-02-15T08:32:44;99425.56;;;4.85;100.00
19447;BME280;9862;49.462;11.054;2023-02-15T08:35:11;99414.16;;;4.75;100.00
19447;BME280;9862;49.462;11.054;2023-02-15T08:37:38;99418.31;;;4.68;100.00
19447;BME280;9862;49.462;11.054;2023-02-15T08:40:08;99416.09;;;4.73;100.00
19447;BME280;9862;49.462;11.054;2023-02-15T08:42:34;99418.03;;;4.71;100.00
19447;BME280;9862;49.462;11.054;2023-02-15T08:45:01;99411.91;;;4.60;100.00
19447;BME280;9862;49.462;11.054;2023-02-15T08:47:27;99419.69;;;4.72;100.00
19447;BME280;9862;49.462;11.054;2023-02-15T08:49:54;99432.63;;;4.75;100.00
19447;BME280;9862;49.462;11.054;2023-02-15T08:52:21;99429.19;;;5.03;100.00
19447;BME280;9862;49.462;11.054;2023-02-15T08:54:47;99440.66;;;4.64;100.00
19447;BME280;9862;49.462;11.054;2023-02-15T08:57:15;99436.94;;;4.26;100.00
19447;BME280;9862;49.462;11.054;2023-02-15T08:59:42;99442.22;;;3.95;100.00
19447;BME280;9862;49.462;11.054;2023-02-15T09:02:09;99432.69;;;3.73;100.00
19447;BME280;9862;49.462;11.054;2023-02-15T09:04:36;99432.63;;;3.64;100.00
19447;BME280;9862;49.462;11.054;2023-02-15T09:07:03;99437.38;;;3.70;100.00
19447;BME280;9862;49.462;11.054;2023-02-15T09:09:30;99432.09;;;3.91;100.00
19447;BME280;9862;49.462;11.054;2023-02-15T09:11:57;99423.50;;;4.29;100.00
19447;BME280;9862;49.462;11.054;2023-02-15T09:14:25;99426.84;;;4.41;100.00
19447;BME280;9862;49.462;11.054;2023-02-15T09:16:53;99422.97;;;4.35;100.00
19447;BME280;9862;49.462;11.054;2023-02-15T09:19:21;99417.97;;;4.42;100.00
19447;BME280;9862;49.462;11.054;2023-02-15T09:21:48;99425.50;;;4.46;100.00
19447;BME280;9862;49.462;11.054;2023-02-15T09:24:16;99422.31;;;4.62;100.00
19447;BME280;9862;49.462;11.054;2023-02-15T09:26:45;99420.09;;;4.48;100.00
19447;BME280;9862;49.462;11.054;2023-02-15T09:29:14;99421.06;;;4.47;100.00
19447;BME280;9862;49.462;11.054;2023-02-15T09:31:43;99426.06;;;4.59;100.00
19447;BME280;9862;49.462;11.054;2023-02-15T09:34:11;99420.78;;;4.59;100.00
19447;BME280;9862;49.462;11.054;2023-02-15T09:36:39;99425.50;;;4.56;100.00
19447;BME280;9862;49.462;11.054;2023-02-15T09:39:08;99426.06;;;4.69;100.00
19447;BME280;9862;49.462;11.054;2023-02-15T09:41:49;99430.25;;;4.72;100.00
19447;BME280;9862;49.462;11.054;2023-02-15T09:44:27;99431.38;;;4.79;100.00
19447;BME280;9862;49.462;11.054;2023-02-15T09:49:58;99430.00;;;5.04;100.00
19447;BME280;9862;49.462;11.054;2023-02-15T09:52:35;99439.28;;;5.08;100.00
19447;BME280;9862;49.462;11.054;2023-02-15T09:55:28;99433.88;;;5.19;100.00
19447;BME280;9862;49.462;11.054;2023-02-15T09:58:03;99438.91;;;5.12;100.00
19447;BME280;9862;49.462;11.054;2023-02-15T10:00:39;99438.16;;;5.30;100.00
19447;BME280;9862;49.462;11.054;2023-02-15T10:03:23;99438.06;;;5.31;100.00
19447;BME280;9862;49.462;11.054;2023-02-15T10:06:08;99437.47;;;5.37;100.00
19447;BME280;9862;49.462;11.054;2023-02-15T10:08:56;99436.25;;;5.32;100.00
19447;BME280;9862;49.462;11.054;2023-02-15T10:11:38;99440.69;;;5.31;100.00
19447;BME280;9862;49.462;11.054;2023-02-15T10:14:36;99439.16;;;5.29;100.00
19447;BME280;9862;49.462;11.054;2023-02-15T10:17:16;99442.22;;;5.14;100.00
19447;BME280;9862;49.462;11.054;2023-02-15T10:19:55;99435.81;;;5.07;100.00
19447;BME280;9862;49.462;11.054;2023-02-15T10:22:30;99429.16;;;5.23;100.00
19447;BME280;9862;49.462;11.054;2023-02-15T10:25:10;99417.19;;;5.28;100.00
19447;BME280;9862;49.462;11.054;2023-02-15T10:27:44;99419.56;;;5.41;100.00
19447;BME280;9862;49.462;11.054;2023-02-15T10:30:13;99402.75;;;5.42;100.00
19447;BME280;9862;49.462;11.054;2023-02-15T10:32:46;99404.13;;;5.46;100.00
19447;BME280;9862;49.462;11.054;2023-02-15T10:35:24;99401.03;;;5.60;100.00
19447;BME280;9862;49.462;11.054;2023-02-15T10:38:08;99391.84;;;5.64;100.00
19447;BME280;9862;49.462;11.054;2023-02-15T10:40:44;99394.66;;;5.53;100.00
19447;BME280;9862;49.462;11.054;2023-02-15T10:43:27;99387.97;;;5.49;100.00
19447;BME280;9862;49.462;11.054;2023-02-15T10:46:05;99386.56;;;5.64;100.00
19447;BME280;9862;49.462;11.054;2023-02-15T10:48:46;99382.75;;;5.77;100.00
19447;BME280;9862;49.462;11.054;2023-02-15T10:51:28;99378.16;;;5.79;100.00
19447;BME280;9862;49.462;11.054;2023-02-15T10:54:12;99371.19;;;5.87;100.00
19447;BME280;9862;49.462;11.054;2023-02-15T10:56:51;99368.47;;;5.79;100.00
19447;BME280;9862;49.462;11.054;2023-02-15T10:59:30;99357.88;;;5.79;100.00
19447;BME280;9862;49.462;11.054;2023-02-15T11:02:07;99355.94;;;5.81;100.00
19447;BME280;9862;49.462;11.054;2023-02-15T11:04:44;99351.75;;;5.79;100.00
19447;BME280;9862;49.462;11.054;2023-02-15T11:07:18;99356.59;;;5.93;100.00
19447;BME280;9862;49.462;11.054;2023-02-15T11:09:49;99345.06;;;5.94;100.00
19447;BME280;9862;49.462;11.054;2023-02-15T11:12:20;99339.25;;;5.81;100.00
19447;BME280;9862;49.462;11.054;2023-02-15T11:14:52;99339.41;;;5.79;100.00
19447;BME280;9862;49.462;11.054;2023-02-15T11:17:23;99343.91;;;5.96;100.00
19447;BME280;9862;49.462;11.054;2023-02-15T11:19:56;99350.53;;;6.10;100.00
19447;BME280;9862;49.462;11.054;2023-02-15T11:22:27;99346.72;;;5.95;100.00
19447;BME280;9862;49.462;11.054;2023-02-15T11:24:57;99352.66;;;5.97;100.00
19447;BME280;9862;49.462;11.054;2023-02-15T11:27:27;99348.94;;;5.90;100.00
19447;BME280;9862;49.462;11.054;2023-02-15T11:30:00;99340.31;;;5.88;100.00
19447;BME280;9862;49.462;11.054;2023-02-15T11:32:30;99340.44;;;5.96;100.00
19447;BME280;9862;49.462;11.054;2023-02-15T11:35:01;99339.56;;;6.05;100.00
19447;BME280;9862;49.462;11.054;2023-02-15T11:37:36;99337.31;;;6.10;100.00
19447;BME280;9862;49.462;11.054;2023-02-15T11:40:17;99326.84;;;6.18;100.00
19447;BME280;9862;49.462;11.054;2023-02-15T11:42:47;99325.09;;;6.27;100.00
19447;BME280;9862;49.462;11.054;2023-02-15T11:45:22;99312.13;;;6.34;100.00
19447;BME280;9862;49.462;11.054;2023-02-15T11:47:52;99304.88;;;6.53;100.00
19447;BME280;9862;49.462;11.054;2023-02-15T11:50:22;99308.19;;;6.55;100.00
19447;BME280;9862;49.462;11.054;2023-02-15T11:52:52;99315.69;;;6.60;100.00
19447;BME280;9862;49.462;11.054;2023-02-15T11:55:22;99309.19;;;6.72;100.00
19447;BME280;9862;49.462;11.054;2023-02-15T11:57:53;99315.97;;;6.93;100.00
19447;BME280;9862;49.462;11.054;2023-02-15T12:00:29;99301.03;;;7.09;100.00
19447;BME280;9862;49.462;11.054;2023-02-15T12:03:03;99307.56;;;6.97;100.00
19447;BME280;9862;49.462;11.054;2023-02-15T12:05:35;99303.28;;;6.60;100.00
19447;BME280;9862;49.462;11.054;2023-02-15T12:08:15;99306.22;;;6.22;100.00
19447;BME280;9862;49.462;11.054;2023-02-15T12:10:49;99299.44;;;6.19;100.00
19447;BME280;9862;49.462;11.054;2023-02-15T12:13:20;99299.38;;;6.47;100.00
19447;BME280;9862;49.462;11.054;2023-02-15T12:15:48;99288.00;;;6.37;100.00
19447;BME280;9862;49.462;11.054;2023-02-15T12:18:20;99287.13;;;6.10;100.00
19447;BME280;9862;49.462;11.054;2023-02-15T12:20:48;99286.94;;;5.84;100.00
19447;BME280;9862;49.462;11.054;2023-02-15T12:23:17;99278.31;;;5.92;100.00
19447;BME280;9862;49.462;11.054;2023-02-15T12:25:50;99278.56;;;6.16;100.00
19447;BME280;9862;49.462;11.054;2023-02-15T12:28:25;99274.13;;;6.35;100.00
19447;BME280;9862;49.462;11.054;2023-02-15T12:30:54;99265.44;;;6.42;100.00
19447;BME280;9862;49.462;11.054;2023-02-15T12:33:28;99258.94;;;6.54;100.00
19447;BME280;9862;49.462;11.054;2023-02-15T12:35:58;99256.69;;;6.59;100.00
19447;BME280;9862;49.462;11.054;2023-02-15T12:38:29;99246.59;;;6.63;100.00
19447;BME280;9862;49.462;11.054;2023-02-15T12:41:00;99249.22;;;6.81;100.00
19447;BME280;9862;49.462;11.054;2023-02-15T12:43:31;99249.75;;;6.84;100.00
19447;BME280;9862;49.462;11.054;2023-02-15T12:46:23;99252.69;;;6.81;100.00
19447;BME280;9862;49.462;11.054;2023-02-15T12:49:07;99245.69;;;6.72;100.00
19447;BME280;9862;49.462;11.054;2023-02-15T12:51:45;99248.66;;;6.69;100.00
19447;BME280;9862;49.462;11.054;2023-02-15T12:54:24;99246.31;;;6.66;100.00
19447;BME280;9862;49.462;11.054;2023-02-15T12:56:52;99228.66;;;6.75;100.00
19447;BME280;9862;49.462;11.054;2023-02-15T12:59:19;99225.25;;;6.82;100.00
19447;BME280;9862;49.462;11.054;2023-02-15T13:01:47;99225.97;;;6.93;100.00
19447;BME280;9862;49.462;11.054;2023-02-15T13:04:21;99231.00;;;7.04;100.00
19447;BME280;9862;49.462;11.054;2023-02-15T13:06:51;99232.38;;;7.08;100.00
19447;BME280;9862;49.462;11.054;2023-02-15T13:09:25;99229.06;;;7.14;100.00
19447;BME280;9862;49.462;11.054;2023-02-15T13:11:56;99229.25;;;7.46;100.00
19447;BME280;9862;49.462;11.054;2023-02-15T13:14:28;99226.06;;;7.35;100.00
19447;BME280;9862;49.462;11.054;2023-02-15T13:16:58;99232.81;;;7.29;100.00
19447;BME280;9862;49.462;11.054;2023-02-15T13:19:31;99215.66;;;7.41;100.00
19447;BME280;9862;49.462;11.054;2023-02-15T13:22:02;99221.63;;;7.43;100.00
19447;BME280;9862;49.462;11.054;2023-02-15T13:24:35;99220.00;;;7.51;100.00
19447;BME280;9862;49.462;11.054;2023-02-15T13:27:03;99204.66;;;7.70;100.00